Time,TemperatureF,DewpointF,PressureIn,WindDirection,WindDirectionDegrees,WindSpeedMPH,WindSpeedGustMPH,Humidity,HourlyPrecipIn,Conditions,Clouds,dailyrainin,SolarRadiationWatts/m^2,SoftwareType,DateUTC
2013-09-12 00:00:00,62.0,57.0,-100.00,NNW,337,0.0,-999.0,83,-99.99,,,-99.99,0.000000,,2013-09-12 05:00:00,
2013-09-12 00:43:00,62.0,57.0,-100.00,NNW,337,0.0,-999.0,83,-99.99,,,-99.99,0.000000,,2013-09-12 05:43:00,
2013-09-12 00:53:00,62.0,57.0,-100.00,NNW,337,0.0,-999.0,83,-99.99,,,-99.99,0.000000,,2013-09-12 05:53:00,
2013-09-12 01:00:00,61.0,57.0,-100.00,NW,315,1.0,-999.0,89,-99.99,,,-99.99,0.000000,,2013-09-12 06:00:00,
2013-09-12 01:42:00,61.0,57.0,-100.00,NW,315,1.0,-999.0,89,-99.99,,,-99.99,0.000000,,2013-09-12 06:42:00,
2013-09-12 01:52:00,61.0,57.0,-100.00,NW,315,1.0,-999.0,89,-99.99,,,-99.99,0.000000,,2013-09-12 06:52:00,
2013-09-12 02:00:00,61.0,56.0,-100.00,NNW,337,1.0,-999.0,84,-99.99,,,-99.99,0.000000,,2013-09-12 07:00:00,
2013-09-12 02:44:00,61.0,56.0,-100.00,NNW,337,1.0,-999.0,84,-99.99,,,-99.99,0.000000,,2013-09-12 07:44:00,
2013-09-12 02:52:00,61.0,56.0,-100.00,NNW,337,1.0,-999.0,84,-99.99,,,-99.99,0.000000,,2013-09-12 07:52:00,
2013-09-12 03:00:00,60.0,55.0,-100.00,NNW,337,1.0,-999.0,83,-99.99,,,-99.99,0.000000,,2013-09-12 08:00:00,
2013-09-12 03:42:00,60.0,55.0,-100.00,NNW,337,1.0,-999.0,83,-99.99,,,-99.99,0.000000,,2013-09-12 08:42:00,
2013-09-12 03:52:00,60.0,55.0,-100.00,NNW,337,1.0,-999.0,83,-99.99,,,-99.99,0.000000,,2013-09-12 08:52:00,
2013-09-12 04:00:00,61.0,55.0,-100.00,NNW,337,2.0,-999.0,79,-99.99,,,-99.99,0.000000,,2013-09-12 09:00:00,
2013-09-12 04:43:00,61.0,55.0,-100.00,NNW,337,2.0,-999.0,79,-99.99,,,-99.99,0.000000,,2013-09-12 09:43:00,
2013-09-12 04:53:00,61.0,55.0,-100.00,NNW,337,2.0,-999.0,79,-99.99,,,-99.99,0.000000,,2013-09-12 09:53:00,
2013-09-12 05:00:00,60.0,54.0,-100.00,North,0,3.0,-999.0,80,-99.99,,,-99.99,0.000000,,2013-09-12 10:00:00,
2013-09-12 05:43:00,60.0,54.0,-100.00,North,0,3.0,-999.0,80,-99.99,,,-99.99,0.000000,,2013-09-12 10:43:00,
2013-09-12 05:53:00,60.0,54.0,-100.00,North,0,3.0,-999.0,80,-99.99,,,-99.99,0.000000,,2013-09-12 10:53:00,
2013-09-12 06:00:00,59.0,54.0,-100.00,NNE,22,4.0,-999.0,82,-99.99,,,-99.99,0.000000,,2013-09-12 11:00:00,
2013-09-12 06:42:00,59.0,54.0,-100.00,NNE,22,4.0,-999.0,82,-99.99,,,-99.99,0.000000,,2013-09-12 11:42:00,
2013-09-12 06:52:00,59.0,54.0,-100.00,NNE,22,4.0,-999.0,82,-99.99,,,-99.99,0.000000,,2013-09-12 11:52:00,
2013-09-12 07:00:00,59.0,54.0,-100.00,NNE,22,5.0,-999.0,85,-99.99,,,-99.99,8.120000,,2013-09-12 12:00:00,
2013-09-12 07:42:00,59.0,54.0,-100.00,NNE,22,5.0,-999.0,85,-99.99,,,-99.99,8.120000,,2013-09-12 12:42:00,
2013-09-12 07:52:00,59.0,54.0,-100.00,NNE,22,5.0,-999.0,85,-99.99,,,-99.99,8.120000,,2013-09-12 12:52:00,
2013-09-12 08:00:00,60.0,55.0,-100.00,NNE,22,6.0,-999.0,85,-99.99,,,-99.99,38.279999,,2013-09-12 13:00:00,
2013-09-12 08:42:00,60.0,55.0,-100.00,NNE,22,6.0,-999.0,85,-99.99,,,-99.99,38.279999,,2013-09-12 13:42:00,
2013-09-12 08:52:00,60.0,55.0,-100.00,NNE,22,6.0,-999.0,85,-99.99,,,-99.99,38.279999,,2013-09-12 13:52:00,
2013-09-12 09:00:00,61.0,55.0,-100.00,North,0,7.0,-999.0,82,-99.99,,,-99.99,44.080002,,2013-09-12 14:00:00,
2013-09-12 09:42:00,61.0,55.0,-100.00,North,0,7.0,-999.0,82,-99.99,,,-99.99,44.080002,,2013-09-12 14:42:00,
2013-09-12 09:52:00,61.0,55.0,-100.00,North,0,7.0,-999.0,82,-99.99,,,-99.99,44.080002,,2013-09-12 14:52:00,
2013-09-12 10:00:00,62.0,55.0,-100.00,NNE,22,7.0,-999.0,78,-99.99,,,-99.99,293.480011,,2013-09-12 15:00:00,
2013-09-12 10:44:00,62.0,55.0,-100.00,NNE,22,7.0,-999.0,78,-99.99,,,-99.99,293.480011,,2013-09-12 15:44:00,
2013-09-12 10:54:00,62.0,55.0,-100.00,NNE,22,7.0,-999.0,78,-99.99,,,-99.99,293.480011,,2013-09-12 15:54:00,
2013-09-12 11:00:00,63.0,53.0,-100.00,North,0,6.0,-999.0,69,-99.99,,,-99.99,593.919983,,2013-09-12 16:00:00,
2013-09-12 11:43:00,63.0,53.0,-100.00,North,0,6.0,-999.0,69,-99.99,,,-99.99,593.919983,,2013-09-12 16:43:00,
2013-09-12 11:53:00,63.0,53.0,-100.00,North,0,6.0,-999.0,69,-99.99,,,-99.99,593.919983,,2013-09-12 16:53:00,
2013-09-12 12:00:00,63.0,53.0,-100.00,NNE,22,5.0,-999.0,70,-99.99,,,-99.99,474.440002,,2013-09-12 17:00:00,
2013-09-12 12:43:00,63.0,53.0,-100.00,NNE,22,5.0,-999.0,70,-99.99,,,-99.99,474.440002,,2013-09-12 17:43:00,
2013-09-12 12:54:00,63.0,53.0,-100.00,NNE,22,5.0,-999.0,70,-99.99,,,-99.99,474.440002,,2013-09-12 17:54:00,
2013-09-12 13:00:00,64.0,53.0,-100.00,North,0,4.0,-999.0,67,-99.99,,,-99.99,470.959991,,2013-09-12 18:00:00,
2013-09-12 13:42:00,64.0,53.0,-100.00,North,0,4.0,-999.0,67,-99.99,,,-99.99,470.959991,,2013-09-12 18:42:00,
2013-09-12 13:52:00,64.0,53.0,-100.00,North,0,4.0,-999.0,67,-99.99,,,-99.99,470.959991,,2013-09-12 18:52:00,
2013-09-12 14:00:00,65.0,52.0,-100.00,North,0,4.0,-999.0,62,-99.99,,,-99.99,344.519989,,2013-09-12 19:00:00,
2013-09-12 14:42:00,65.0,52.0,-100.00,North,0,4.0,-999.0,62,-99.99,,,-99.99,344.519989,,2013-09-12 19:42:00,
2013-09-12 14:52:00,65.0,52.0,-100.00,North,0,4.0,-999.0,62,-99.99,,,-99.99,344.519989,,2013-09-12 19:52:00,
2013-09-12 15:00:00,63.0,52.0,-100.00,NE,45,5.0,-999.0,68,-99.99,,,-99.99,330.600006,,2013-09-12 20:00:00,
2013-09-12 15:42:00,63.0,52.0,-100.00,NE,45,5.0,-999.0,68,-99.99,,,-99.99,330.600006,,2013-09-12 20:42:00,
2013-09-12 15:52:00,63.0,52.0,-100.00,NE,45,5.0,-999.0,68,-99.99,,,-99.99,330.600006,,2013-09-12 20:52:00,
2013-09-12 16:00:00,61.0,51.0,-100.00,NNE,22,8.0,-999.0,69,-99.99,,,-99.99,412.959991,,2013-09-12 21:00:00,
2013-09-12 16:43:00,61.0,51.0,-100.00,NNE,22,8.0,-999.0,69,-99.99,,,-99.99,412.959991,,2013-09-12 21:43:00,
2013-09-12 16:54:00,61.0,51.0,-100.00,NNE,22,8.0,-999.0,69,-99.99,,,-99.99,412.959991,,2013-09-12 21:54:00,
2013-09-12 17:00:00,60.0,49.0,-100.00,NNE,22,9.0,-999.0,66,-99.99,,,-99.99,218.080002,,2013-09-12 22:00:00,
2013-09-12 17:43:00,60.0,49.0,-100.00,NNE,22,9.0,-999.0,66,-99.99,,,-99.99,218.080002,,2013-09-12 22:43:00,
2013-09-12 17:54:00,60.0,49.0,-100.00,NNE,22,9.0,-999.0,66,-99.99,,,-99.99,218.080002,,2013-09-12 22:54:00,
2013-09-12 19:00:00,56.0,47.0,-100.00,NNE,22,8.0,-999.0,71,-99.99,,,-99.99,22.040001,,2013-09-13 00:00:00,
2013-09-12 19:42:00,56.0,47.0,-100.00,NNE,22,8.0,-999.0,71,-99.99,,,-99.99,22.040001,,2013-09-13 00:42:00,
2013-09-12 19:52:00,56.0,47.0,-100.00,NNE,22,8.0,-999.0,71,-99.99,,,-99.99,22.040001,,2013-09-13 00:52:00,
2013-09-12 20:00:00,53.0,46.0,-100.00,NNE,22,9.0,-999.0,77,-99.99,,,-99.99,1.160000,,2013-09-13 01:00:00,
2013-09-12 20:42:00,53.0,46.0,-100.00,NNE,22,9.0,-999.0,77,-99.99,,,-99.99,1.160000,,2013-09-13 01:42:00,
2013-09-12 20:53:00,53.0,46.0,-100.00,NNE,22,9.0,-999.0,77,-99.99,,,-99.99,1.160000,,2013-09-13 01:53:00,
2013-09-12 21:00:00,53.0,44.0,-100.00,NNE,22,9.0,-999.0,71,-99.99,,,-99.99,0.000000,,2013-09-13 02:00:00,
2013-09-12 21:43:00,53.0,44.0,-100.00,NNE,22,9.0,-999.0,71,-99.99,,,-99.99,0.000000,,2013-09-13 02:43:00,
2013-09-12 21:53:00,53.0,44.0,-100.00,NNE,22,9.0,-999.0,71,-99.99,,,-99.99,0.000000,,2013-09-13 02:53:00,
2013-09-12 22:00:00,52.0,43.0,-100.00,NNE,22,8.0,-999.0,70,-99.99,,,-99.99,0.000000,,2013-09-13 03:00:00,
2013-09-12 22:45:00,52.0,43.0,-100.00,NNE,22,8.0,-999.0,70,-99.99,,,-99.99,0.000000,,2013-09-13 03:45:00,
2013-09-12 22:55:00,52.0,43.0,-100.00,NNE,22,8.0,-999.0,70,-99.99,,,-99.99,0.000000,,2013-09-13 03:55:00,
2013-09-12 23:00:00,52.0,43.0,-100.00,NNE,22,8.0,-999.0,72,-99.99,,,-99.99,0.000000,,2013-09-13 04:00:00,
2013-09-12 23:44:00,52.0,43.0,-100.00,NNE,22,8.0,-999.0,72,-99.99,,,-99.99,0.000000,,2013-09-13 04:44:00,
2013-09-12 23:54:00,52.0,43.0,-100.00,NNE,22,8.0,-999.0,72,-99.99,,,-99.99,0.000000,,2013-09-13 04:54:00,